Time;durP1;ratioP1;P1;durP2;ratioP2;P2;SDS_P1;SDS_P2;PMS_P1;PMS_P2;Temp;Humidity;BMP_temperature;BMP_pressure;BME280_temperature;BME280_humidity;BME280_pressure;Samples;Min_cycle;Max_cycle;Signal;HPM_P1;HPM_P2
2023/12/20 00:01:20;;;;;;;21.20;3.90;;;6.60;99.90;;;;;;5002293;28;20355;-83
2023/12/20 00:03:46;;;;;;;19.50;3.80;;;6.60;99.90;;;;;;5002667;28;20367;-83
2023/12/20 00:06:12;;;;;;;9.47;3.00;;;6.60;99.90;;;;;;5003517;28;20085;-83
2023/12/20 00:08:37;;;;;;;13.37;2.90;;;6.70;99.90;;;;;;4985782;28;20018;-83
2023/12/20 00:11:06;;;;;;;17.97;3.87;;;6.70;99.90;;;;;;5002447;28;20026;-83
2023/12/20 00:13:32;;;;;;;20.53;4.67;;;6.70;99.90;;;;;;4985877;28;20065;-82
2023/12/20 00:15:57;;;;;;;21.27;4.93;;;6.70;99.90;;;;;;4986065;28;20360;-83
2023/12/20 00:18:23;;;;;;;21.43;6.23;;;6.70;99.90;;;;;;4986031;28;20510;-83
2023/12/20 00:20:49;;;;;;;18.93;6.07;;;6.60;99.90;;;;;;4985255;28;20393;-82
2023/12/20 00:23:15;;;;;;;17.27;5.77;;;6.60;99.90;;;;;;4985914;28;20588;-83
2023/12/20 00:25:40;;;;;;;20.30;5.00;;;6.60;99.90;;;;;;4985648;28;20019;-82
2023/12/20 00:28:06;;;;;;;19.40;5.50;;;6.60;99.90;;;;;;4982322;28;20043;-83
2023/12/20 00:30:32;;;;;;;12.53;4.50;;;6.60;99.90;;;;;;4981967;28;20081;-83
2023/12/20 00:32:58;;;;;;;15.03;4.37;;;6.60;99.90;;;;;;4982381;28;20039;-83
2023/12/20 00:35:24;;;;;;;21.83;4.43;;;6.50;99.90;;;;;;4981505;28;20029;-83
2023/12/20 00:37:49;;;;;;;13.43;4.17;;;6.50;99.90;;;;;;4982391;28;20038;-84
2023/12/20 00:40:15;;;;;;;21.63;3.90;;;6.50;99.90;;;;;;4982115;28;20111;-83
2023/12/20 00:42:41;;;;;;;19.30;3.80;;;6.40;99.90;;;;;;4983842;28;20065;-84
2023/12/20 00:45:07;;;;;;;16.03;3.60;;;6.40;99.90;;;;;;4981812;28;20038;-83
2023/12/20 00:47:32;;;;;;;13.37;3.40;;;6.40;99.90;;;;;;4981821;28;20023;-82
2023/12/20 00:49:58;;;;;;;19.33;3.53;;;6.40;99.90;;;;;;4982199;28;20066;-83
2023/12/20 00:52:25;;;;;;;22.77;4.63;;;6.30;99.90;;;;;;4982184;28;20050;-83
2023/12/20 00:54:50;;;;;;;17.63;3.57;;;6.30;99.90;;;;;;4983432;28;20019;-82
2023/12/20 00:57:16;;;;;;;14.80;3.90;;;6.20;99.90;;;;;;4981826;28;20034;-83
2023/12/20 00:59:41;;;;;;;16.17;3.30;;;6.20;99.90;;;;;;4982114;28;20019;-82
2023/12/20 01:02:08;;;;;;;18.60;3.77;;;6.20;99.90;;;;;;4981682;28;20382;-82
2023/12/20 01:04:34;;;;;;;26.13;4.53;;;6.20;99.90;;;;;;4981495;28;20093;-83
2023/12/20 01:06:59;;;;;;;22.63;4.27;;;6.20;99.90;;;;;;4998308;28;20035;-84
2023/12/20 01:09:26;;;;;;;17.23;3.70;;;6.20;99.90;;;;;;4981878;28;20035;-84
2023/12/20 01:11:52;;;;;;;24.70;4.47;;;6.10;99.90;;;;;;4985638;28;20042;-83
2023/12/20 01:14:18;;;;;;;24.10;4.17;;;6.10;99.90;;;;;;4997758;28;20041;-83
2023/12/20 01:16:44;;;;;;;14.80;3.50;;;6.10;99.90;;;;;;4997957;28;20099;-83
2023/12/20 01:19:10;;;;;;;18.07;3.07;;;6.00;99.90;;;;;;4997775;28;20026;-84
2023/12/20 01:21:35;;;;;;;20.80;3.63;;;6.10;99.90;;;;;;4982937;28;20054;-84
2023/12/20 01:24:01;;;;;;;18.40;3.60;;;6.10;99.90;;;;;;4998018;28;20023;-83
2023/12/20 01:26:27;;;;;;;19.37;3.47;;;6.10;99.90;;;;;;5000876;28;20521;-83
2023/12/20 01:28:53;;;;;;;14.67;3.60;;;6.00;99.90;;;;;;5002132;28;20018;-82
2023/12/20 01:31:19;;;;;;;17.93;2.70;;;6.00;99.90;;;;;;5001641;28;20018;-83
2023/12/20 01:33:44;;;;;;;21.90;3.93;;;6.00;99.90;;;;;;5000766;28;20027;-83
2023/12/20 01:36:11;;;;;;;13.43;2.93;;;6.00;99.90;;;;;;5001354;28;20023;-82
2023/12/20 01:38:37;;;;;;;21.23;3.50;;;6.00;99.90;;;;;;5000960;28;20109;-82
2023/12/20 01:41:02;;;;;;;13.53;3.13;;;5.90;99.90;;;;;;5000937;28;20053;-82
2023/12/20 01:43:29;;;;;;;17.13;3.47;;;5.90;99.90;;;;;;5000498;28;20023;-83
2023/12/20 01:45:57;;;;;;;17.43;3.43;;;5.90;99.90;;;;;;5000423;28;20034;-83
2023/12/20 01:48:24;;;;;;;21.03;3.30;;;5.90;99.90;;;;;;5002158;28;20409;-83
2023/12/20 01:50:50;;;;;;;16.07;3.33;;;5.90;99.90;;;;;;5000806;28;20030;-83
2023/12/20 01:53:18;;;;;;;16.47;3.10;;;5.90;99.90;;;;;;5000546;28;20019;-83
2023/12/20 01:55:44;;;;;;;12.43;2.67;;;5.90;99.90;;;;;;5000386;28;20034;-83
2023/12/20 01:58:12;;;;;;;11.70;2.20;;;5.90;99.90;;;;;;5000662;28;20711;-83
2023/12/20 02:00:38;;;;;;;15.60;2.27;;;5.90;99.90;;;;;;4999951;28;20033;-83
2023/12/20 02:03:04;;;;;;;14.63;2.33;;;5.90;99.90;;;;;;5000390;28;20030;-83
2023/12/20 02:05:31;;;;;;;18.33;2.70;;;5.90;99.90;;;;;;5000589;28;20053;-83
2023/12/20 02:07:57;;;;;;;18.47;3.03;;;5.90;99.90;;;;;;5002135;28;20034;-84
2023/12/20 02:10:24;;;;;;;12.63;2.53;;;6.00;99.90;;;;;;5000417;28;20022;-84
2023/12/20 02:12:49;;;;;;;22.00;2.77;;;6.00;99.90;;;;;;5001839;28;20030;-84
2023/12/20 02:15:15;;;;;;;17.87;2.50;;;6.00;99.90;;;;;;5000789;28;20527;-84
2023/12/20 02:17:41;;;;;;;25.47;2.90;;;6.00;99.90;;;;;;4999926;28;20039;-84
2023/12/20 02:20:07;;;;;;;12.43;2.37;;;6.00;99.90;;;;;;5000422;28;20030;-84
2023/12/20 02:22:33;;;;;;;19.03;2.50;;;6.00;99.90;;;;;;5001686;28;20042;-83
2023/12/20 02:24:58;;;;;;;18.97;3.30;;;6.10;99.90;;;;;;5000349;28;20023;-83
2023/12/20 02:27:24;;;;;;;22.27;2.37;;;6.10;99.90;;;;;;5000154;28;20073;-83
2023/12/20 02:29:51;;;;;;;24.37;3.47;;;6.10;99.90;;;;;;4984215;28;20022;-83
2023/12/20 02:32:18;;;;;;;15.77;2.70;;;6.10;99.90;;;;;;5000031;28;20078;-83
2023/12/20 02:34:43;;;;;;;12.97;2.17;;;6.10;99.90;;;;;;4999782;28;20037;-83
2023/12/20 02:37:09;;;;;;;17.57;2.93;;;6.20;99.90;;;;;;5001820;28;20027;-83
2023/12/20 02:39:34;;;;;;;18.87;2.50;;;6.20;99.90;;;;;;5001590;28;20042;-83
2023/12/20 02:42:00;;;;;;;23.27;3.13;;;6.20;99.90;;;;;;5001349;28;20053;-83
2023/12/20 02:44:26;;;;;;;20.90;3.57;;;6.30;99.90;;;;;;5003493;28;20033;-82
2023/12/20 02:46:51;;;;;;;16.43;3.17;;;6.30;99.90;;;;;;5005181;28;20061;-83
2023/12/20 02:49:18;;;;;;;11.47;1.77;;;6.30;99.90;;;;;;5003789;28;20023;-83
2023/12/20 02:51:43;;;;;;;16.03;2.60;;;6.40;99.90;;;;;;5003912;28;20042;-83
2023/12/20 02:54:09;;;;;;;15.50;2.63;;;6.40;99.90;;;;;;5003782;28;20058;-83
2023/12/20 02:56:34;;;;;;;15.07;2.50;;;6.40;99.90;;;;;;5003585;28;20035;-82
2023/12/20 02:59:00;;;;;;;15.87;3.13;;;6.50;99.90;;;;;;5003895;28;20090;-82
2023/12/20 03:01:27;;;;;;;19.43;3.30;;;6.50;99.90;;;;;;5003440;28;20049;-83
2023/12/20 03:03:53;;;;;;;19.13;3.03;;;6.50;99.90;;;;;;5003772;28;20030;-83
2023/12/20 03:06:19;;;;;;;26.07;2.83;;;6.50;99.90;;;;;;5003520;28;20015;-82
2023/12/20 03:08:45;;;;;;;18.80;3.30;;;6.50;99.90;;;;;;5003315;28;20065;-82
2023/12/20 03:11:11;;;;;;;20.90;4.07;;;6.40;99.90;;;;;;5003567;28;20030;-82
2023/12/20 03:13:37;;;;;;;19.50;3.77;;;6.40;99.90;;;;;;5003200;28;20026;-82
2023/12/20 03:16:13;;;;;;;19.57;3.83;;;6.40;99.90;;;;;;5003335;28;20062;-82
2023/12/20 03:18:39;;;;;;;12.97;3.33;;;6.40;99.90;;;;;;5004646;28;20040;-81
2023/12/20 03:21:05;;;;;;;20.60;3.37;;;6.40;99.90;;;;;;5003546;28;20096;-81
2023/12/20 03:23:32;;;;;;;13.87;3.13;;;6.40;99.90;;;;;;5003144;28;20052;-82
2023/12/20 03:25:58;;;;;;;20.33;4.10;;;6.40;99.90;;;;;;5003069;28;20058;-82
2023/12/20 03:28:24;;;;;;;20.93;3.73;;;6.40;99.90;;;;;;5003142;28;20043;-82
2023/12/20 03:30:50;;;;;;;26.77;4.30;;;6.40;99.90;;;;;;5002686;28;20019;-81
2023/12/20 03:33:16;;;;;;;17.63;4.60;;;6.30;99.90;;;;;;5003343;28;20026;-82
2023/12/20 03:35:41;;;;;;;25.47;4.17;;;6.30;99.90;;;;;;5003835;28;20494;-82
2023/12/20 03:38:07;;;;;;;17.93;3.17;;;6.30;99.90;;;;;;4986556;28;20072;-83
2023/12/20 03:40:33;;;;;;;18.50;2.80;;;6.30;99.90;;;;;;5002707;28;20093;-82
2023/12/20 03:42:59;;;;;;;19.80;3.80;;;6.30;99.90;;;;;;5002764;28;20022;-83
2023/12/20 03:45:25;;;;;;;17.17;2.90;;;6.30;99.90;;;;;;5002972;28;20037;-83
2023/12/20 03:47:54;;;;;;;19.60;3.67;;;6.30;99.90;;;;;;5002687;28;20034;-82
2023/12/20 03:50:22;;;;;;;13.20;3.60;;;6.30;99.90;;;;;;5002825;28;21099;-82
2023/12/20 03:52:47;;;;;;;20.90;4.00;;;6.30;99.90;;;;;;5002850;28;20027;-83
2023/12/20 03:55:13;;;;;;;18.50;4.20;;;6.30;99.90;;;;;;4985360;28;20064;-83
2023/12/20 03:57:39;;;;;;;18.87;4.63;;;6.30;99.90;;;;;;5003448;28;20062;-83
2023/12/20 04:00:10;;;;;;;21.47;4.47;;;6.30;99.90;;;;;;5002246;28;20041;-82
2023/12/20 04:02:39;;;;;;;15.23;3.70;;;6.30;99.90;;;;;;5002666;28;20041;-82
2023/12/20 04:05:06;;;;;;;17.43;3.37;;;6.30;99.90;;;;;;5002063;28;20410;-81
2023/12/20 04:07:31;;;;;;;19.03;3.97;;;6.30;99.90;;;;;;4986002;28;20037;-82
2023/12/20 04:09:57;;;;;;;18.77;3.00;;;6.30;99.90;;;;;;5002413;28;20049;-82
2023/12/20 04:12:23;;;;;;;13.40;3.30;;;6.30;99.90;;;;;;5003471;28;20056;-82
2023/12/20 04:14:48;;;;;;;16.63;3.37;;;6.30;99.90;;;;;;5003561;28;20034;-82
2023/12/20 04:17:18;;;;;;;20.23;3.47;;;6.30;99.90;;;;;;5002159;28;20038;-82
2023/12/20 04:19:44;;;;;;;18.70;3.20;;;6.20;99.90;;;;;;5001826;28;20022;-82
2023/12/20 04:22:10;;;;;;;19.27;3.27;;;6.30;99.90;;;;;;5001881;28;20027;-81
2023/12/20 04:24:35;;;;;;;25.83;4.13;;;6.30;99.90;;;;;;5001968;28;20090;-82
2023/12/20 04:27:01;;;;;;;18.70;3.47;;;6.30;99.90;;;;;;4985472;28;20057;-83
2023/12/20 04:29:27;;;;;;;21.20;3.53;;;6.30;99.90;;;;;;4985544;28;20494;-82
2023/12/20 04:31:53;;;;;;;17.80;4.20;;;6.30;99.90;;;;;;5001638;28;20026;-83
2023/12/20 04:34:18;;;;;;;19.30;3.60;;;6.40;99.90;;;;;;5001447;28;20490;-82
2023/12/20 04:36:44;;;;;;;23.27;3.90;;;6.40;99.90;;;;;;5003237;28;20022;-82
2023/12/20 04:39:12;;;;;;;21.77;4.30;;;6.40;99.90;;;;;;5001686;28;20029;-82
2023/12/20 04:41:38;;;;;;;29.50;3.90;;;6.40;99.90;;;;;;5001410;28;20022;-83
2023/12/20 04:44:04;;;;;;;19.37;3.67;;;6.50;99.90;;;;;;5001827;28;20097;-82
2023/12/20 04:46:29;;;;;;;28.27;4.40;;;6.50;99.90;;;;;;5003141;28;20037;-83
2023/12/20 04:48:55;;;;;;;17.67;3.87;;;6.50;99.90;;;;;;5001492;28;20049;-83
2023/12/20 04:51:21;;;;;;;23.43;4.80;;;6.60;99.90;;;;;;5003152;28;20023;-82
2023/12/20 04:53:46;;;;;;;18.37;3.73;;;6.60;99.90;;;;;;5002842;28;20019;-82
2023/12/20 04:56:12;;;;;;;25.20;3.90;;;6.60;99.90;;;;;;5001077;28;20109;-82
2023/12/20 04:58:38;;;;;;;16.20;3.53;;;6.60;99.90;;;;;;5001447;28;20030;-82
2023/12/20 05:01:06;;;;;;;22.73;3.63;;;6.70;99.90;;;;;;5001374;28;20046;-83
2023/12/20 05:03:31;;;;;;;21.73;3.97;;;6.70;99.90;;;;;;5001443;28;20031;-82
2023/12/20 05:05:58;;;;;;;22.70;4.37;;;6.70;99.90;;;;;;5000966;28;20072;-82
2023/12/20 05:08:23;;;;;;;29.77;3.90;;;6.70;99.90;;;;;;5001362;28;20030;-82
2023/12/20 05:10:49;;;;;;;28.13;4.13;;;6.80;99.90;;;;;;5002207;28;20544;-83
2023/12/20 05:13:15;;;;;;;24.73;4.10;;;6.80;99.90;;;;;;4984667;28;20130;-83
2023/12/20 05:15:41;;;;;;;16.57;2.80;;;6.90;99.90;;;;;;5001391;28;20082;-83
2023/12/20 05:18:06;;;;;;;36.43;4.00;;;6.90;99.90;;;;;;5000983;28;20034;-82
2023/12/20 05:20:32;;;;;;;23.20;3.67;;;6.90;99.90;;;;;;5001165;28;20030;-83
2023/12/20 05:22:58;;;;;;;23.63;4.17;;;7.00;99.90;;;;;;5002236;28;20041;-84
2023/12/20 05:25:23;;;;;;;30.33;3.30;;;7.00;99.90;;;;;;5000547;28;20026;-83
2023/12/20 05:27:49;;;;;;;22.27;4.13;;;7.00;99.90;;;;;;4984378;28;20046;-83
2023/12/20 05:30:15;;;;;;;20.50;3.70;;;7.00;99.90;;;;;;5002340;28;20026;-83
2023/12/20 05:32:40;;;;;;;20.67;3.97;;;7.10;99.90;;;;;;5000649;28;20028;-83
2023/12/20 05:35:07;;;;;;;31.23;4.47;;;7.10;99.90;;;;;;5000281;28;20082;-82
2023/12/20 05:37:32;;;;;;;28.00;3.53;;;7.10;99.90;;;;;;5000518;28;20120;-82
2023/12/20 05:39:58;;;;;;;19.67;3.23;;;7.10;99.90;;;;;;4985520;28;20049;-81
2023/12/20 05:42:24;;;;;;;20.70;4.17;;;7.20;99.90;;;;;;4989204;28;20492;-82
2023/12/20 05:44:49;;;;;;;25.53;3.90;;;7.20;99.90;;;;;;5021699;28;20026;-81
2023/12/20 05:47:15;;;;;;;25.83;4.53;;;7.20;99.90;;;;;;5021398;28;20018;-81
2023/12/20 05:49:41;;;;;;;22.80;2.63;;;7.20;99.90;;;;;;5003983;28;20104;-82
2023/12/20 05:52:06;;;;;;;23.37;4.00;;;7.20;99.90;;;;;;5003534;28;20068;-82
2023/12/20 05:54:32;;;;;;;30.00;4.17;;;7.30;99.90;;;;;;5021502;28;20026;-82
2023/12/20 05:56:57;;;;;;;24.97;3.50;;;7.20;99.90;;;;;;5021511;28;20045;-83
2023/12/20 05:59:23;;;;;;;16.13;3.07;;;7.30;99.90;;;;;;5021697;28;20033;-83
2023/12/20 06:01:49;;;;;;;18.93;3.53;;;7.30;99.90;;;;;;5003562;28;20026;-82
2023/12/20 06:04:15;;;;;;;19.30;3.50;;;7.30;99.90;;;;;;5003900;28;20539;-83
2023/12/20 06:06:42;;;;;;;23.80;4.43;;;7.30;99.90;;;;;;5021079;28;20026;-80
2023/12/20 06:09:07;;;;;;;23.53;4.07;;;7.30;99.90;;;;;;5003686;28;20022;-83
2023/12/20 06:11:33;;;;;;;26.00;3.83;;;7.40;99.90;;;;;;5003939;28;20044;-82
2023/12/20 06:13:59;;;;;;;32.70;3.93;;;7.40;99.90;;;;;;5003640;28;20026;-82
2023/12/20 06:16:24;;;;;;;25.77;4.23;;;7.40;99.90;;;;;;5003632;28;20478;-82
2023/12/20 06:18:50;;;;;;;26.13;3.37;;;7.40;99.90;;;;;;5005855;28;20042;-82
2023/12/20 06:21:16;;;;;;;23.23;3.77;;;7.40;99.90;;;;;;5025490;28;20496;-82
2023/12/20 06:23:41;;;;;;;22.33;3.10;;;7.40;99.90;;;;;;5006994;28;20030;-82
2023/12/20 06:26:07;;;;;;;23.90;4.07;;;7.40;99.90;;;;;;5007297;28;20044;-82
2023/12/20 06:28:33;;;;;;;21.80;3.53;;;7.40;99.90;;;;;;5007586;28;20049;-83
2023/12/20 06:31:00;;;;;;;15.93;2.97;;;7.40;99.90;;;;;;5001276;28;20114;-82
2023/12/20 06:33:26;;;;;;;21.43;3.63;;;7.40;99.90;;;;;;5020262;28;20018;-83
2023/12/20 06:35:52;;;;;;;20.20;2.97;;;7.40;99.90;;;;;;4993828;28;20014;-83
2023/12/20 06:38:18;;;;;;;25.30;3.90;;;7.40;99.90;;;;;;4994500;28;20034;-82
2023/12/20 06:40:45;;;;;;;28.03;3.10;;;7.40;99.90;;;;;;4994304;28;20403;-83
2023/12/20 06:43:11;;;;;;;19.90;2.37;;;7.50;99.90;;;;;;4997530;28;20018;-83
2023/12/20 06:45:37;;;;;;;16.97;2.83;;;7.50;99.90;;;;;;5005304;28;20022;-83
2023/12/20 06:48:03;;;;;;;26.93;2.90;;;7.50;99.90;;;;;;5024514;28;20074;-82
2023/12/20 06:50:29;;;;;;;18.43;3.83;;;7.50;99.90;;;;;;5024045;28;20110;-83
2023/12/20 06:52:54;;;;;;;15.87;3.10;;;7.50;99.90;;;;;;5006017;28;20533;-83
2023/12/20 06:55:20;;;;;;;14.53;2.30;;;7.50;99.90;;;;;;5023826;28;20021;-82
2023/12/20 06:57:45;;;;;;;21.60;3.13;;;7.50;99.90;;;;;;5006299;28;20030;-82
2023/12/20 07:00:12;;;;;;;27.03;3.70;;;7.50;99.90;;;;;;5024728;28;20397;-82
2023/12/20 07:02:37;;;;;;;18.73;2.90;;;7.50;99.90;;;;;;5006708;28;20030;-81
2023/12/20 07:05:04;;;;;;;18.67;2.80;;;7.50;99.90;;;;;;5006780;28;20083;-81
2023/12/20 07:07:30;;;;;;;20.03;2.77;;;7.50;99.90;;;;;;5006349;28;20029;-82
2023/12/20 07:09:55;;;;;;;20.23;3.27;;;7.50;99.90;;;;;;5024564;28;20030;-82
2023/12/20 07:12:21;;;;;;;21.73;3.30;;;7.50;99.90;;;;;;5006497;28;20026;-82
2023/12/20 07:14:47;;;;;;;22.00;2.93;;;7.60;99.90;;;;;;5006052;28;20022;-82
2023/12/20 07:17:15;;;;;;;25.50;3.10;;;7.60;99.90;;;;;;5024361;28;20034;-82
2023/12/20 07:19:41;;;;;;;19.10;2.83;;;7.50;99.90;;;;;;5006466;28;20156;-81
2023/12/20 07:22:07;;;;;;;22.70;2.87;;;7.60;99.90;;;;;;5006419;28;20038;-82
2023/12/20 07:24:35;;;;;;;23.53;3.87;;;7.60;99.90;;;;;;5006417;28;20081;-83
2023/12/20 07:27:00;;;;;;;17.97;3.33;;;7.60;99.90;;;;;;4986185;28;20084;-83
2023/12/20 07:29:26;;;;;;;23.37;3.47;;;7.60;99.90;;;;;;5004720;28;20455;-83
2023/12/20 07:31:53;;;;;;;19.87;3.40;;;7.60;99.90;;;;;;5006140;28;20539;-81
2023/12/20 07:34:20;;;;;;;18.53;3.27;;;7.60;99.90;;;;;;5023344;28;20064;-82
2023/12/20 07:36:45;;;;;;;18.30;3.27;;;7.60;99.90;;;;;;5005694;28;20026;-83
2023/12/20 07:39:11;;;;;;;18.20;3.50;;;7.60;99.90;;;;;;5006265;28;20061;-83
2023/12/20 07:41:37;;;;;;;18.67;2.40;;;7.60;99.90;;;;;;5004922;28;20022;-82
2023/12/20 07:44:07;;;;;;;21.07;3.63;;;7.60;99.90;;;;;;5006063;28;20025;-82
2023/12/20 07:46:33;;;;;;;22.17;3.13;;;7.60;99.90;;;;;;5005845;28;20052;-82
2023/12/20 07:48:58;;;;;;;17.47;3.20;;;7.60;99.90;;;;;;5006041;28;20109;-82
2023/12/20 07:51:24;;;;;;;16.33;2.97;;;7.60;99.90;;;;;;5005922;28;20024;-82
2023/12/20 07:53:51;;;;;;;16.20;3.07;;;7.70;99.90;;;;;;5005917;28;20080;-82
2023/12/20 07:56:20;;;;;;;21.73;3.07;;;7.70;99.90;;;;;;5006009;28;20550;-82
2023/12/20 07:58:48;;;;;;;17.77;2.03;;;7.70;99.90;;;;;;5005647;28;20101;-82
2023/12/20 08:01:16;;;;;;;24.57;4.17;;;7.70;99.90;;;;;;5006315;28;20041;-81
2023/12/20 08:03:41;;;;;;;17.20;3.37;;;7.70;99.90;;;;;;5005627;28;20029;-82
2023/12/20 08:06:07;;;;;;;15.20;2.87;;;7.70;99.90;;;;;;5005600;28;20030;-83
2023/12/20 08:08:32;;;;;;;18.30;2.57;;;7.70;99.90;;;;;;5006074;28;20018;-82
2023/12/20 08:11:02;;;;;;;18.63;3.30;;;7.70;99.90;;;;;;5005523;28;20552;-82
2023/12/20 08:13:28;;;;;;;26.53;2.93;;;7.70;99.90;;;;;;5005612;28;20018;-82
2023/12/20 08:15:54;;;;;;;21.77;3.60;;;7.70;99.90;;;;;;5005901;28;20088;-81
2023/12/20 08:18:23;;;;;;;21.43;3.07;;;7.80;99.90;;;;;;5005325;28;20037;-82
2023/12/20 08:20:48;;;;;;;15.77;2.97;;;7.80;99.90;;;;;;5005036;28;20026;-82
2023/12/20 08:23:15;;;;;;;22.00;3.60;;;7.80;99.90;;;;;;5005434;28;20057;-82
2023/12/20 08:25:41;;;;;;;18.17;3.00;;;7.80;99.90;;;;;;5005266;28;20026;-81
2023/12/20 08:28:07;;;;;;;19.93;3.13;;;7.80;99.90;;;;;;5001685;28;20064;-82
2023/12/20 08:30:32;;;;;;;21.53;3.00;;;7.80;99.90;;;;;;5002135;28;20018;-82
2023/12/20 08:33:02;;;;;;;17.43;3.17;;;7.80;99.90;;;;;;5003339;28;20028;-82
2023/12/20 08:35:28;;;;;;;37.40;4.43;;;7.90;99.90;;;;;;5003084;28;20057;-82
2023/12/20 08:37:53;;;;;;;19.13;3.20;;;7.90;99.90;;;;;;5001527;28;20031;-82
2023/12/20 08:40:20;;;;;;;15.97;2.67;;;7.90;99.90;;;;;;5001381;28;20122;-82
2023/12/20 08:42:45;;;;;;;20.27;3.53;;;7.90;99.90;;;;;;5001817;28;20027;-81
2023/12/20 08:45:11;;;;;;;15.83;2.87;;;7.90;99.90;;;;;;5001332;28;20029;-82
2023/12/20 08:47:37;;;;;;;13.87;2.30;;;7.90;99.90;;;;;;5001802;28;20014;-81
2023/12/20 08:50:03;;;;;;;20.13;3.37;;;7.90;99.90;;;;;;5001466;28;20057;-82
2023/12/20 08:52:29;;;;;;;20.87;2.97;;;7.90;99.90;;;;;;5001643;28;20050;-82
2023/12/20 08:54:55;;;;;;;19.00;2.57;;;7.90;99.90;;;;;;5001484;28;20015;-82
2023/12/20 08:57:22;;;;;;;22.43;2.90;;;7.90;99.90;;;;;;5001772;28;20038;-82
2023/12/20 08:59:48;;;;;;;15.93;2.73;;;7.90;99.90;;;;;;5001430;28;20528;-82
2023/12/20 09:02:14;;;;;;;16.43;3.27;;;8.00;99.90;;;;;;5000929;28;20026;-82
2023/12/20 09:04:40;;;;;;;24.23;3.57;;;8.00;99.90;;;;;;5003108;28;20026;-82
2023/12/20 09:07:05;;;;;;;23.70;3.10;;;8.00;99.90;;;;;;5000940;28;20414;-82
2023/12/20 09:09:32;;;;;;;17.50;3.30;;;8.00;99.90;;;;;;5001574;28;20026;-82
2023/12/20 09:11:58;;;;;;;20.07;3.17;;;8.00;99.90;;;;;;4996993;28;20027;-81
2023/12/20 09:14:23;;;;;;;20.37;2.93;;;8.00;99.90;;;;;;4983474;28;20037;-81
2023/12/20 09:16:51;;;;;;;20.83;3.07;;;8.00;99.90;;;;;;4983262;28;20015;-81
2023/12/20 09:19:18;;;;;;;14.20;3.93;;;7.90;99.90;;;;;;4981603;28;20054;-82
2023/12/20 09:21:43;;;;;;;24.27;3.10;;;8.00;99.90;;;;;;4982283;28;20337;-82
2023/12/20 09:24:09;;;;;;;18.03;3.20;;;8.00;99.90;;;;;;4982292;28;20027;-82
2023/12/20 09:26:35;;;;;;;18.23;2.60;;;8.00;99.90;;;;;;4983441;28;20027;-82
2023/12/20 09:29:01;;;;;;;24.37;3.47;;;8.00;99.90;;;;;;4981174;28;20047;-82
2023/12/20 09:31:26;;;;;;;22.17;3.40;;;8.00;99.90;;;;;;4981385;28;20053;-82
2023/12/20 09:33:52;;;;;;;17.03;3.23;;;7.90;99.90;;;;;;4982764;28;20105;-82
2023/12/20 09:36:18;;;;;;;17.20;3.07;;;7.90;99.90;;;;;;4980813;28;20042;-82
2023/12/20 09:38:43;;;;;;;17.83;2.30;;;7.90;99.90;;;;;;4981513;28;20039;-81
2023/12/20 09:41:09;;;;;;;22.83;3.70;;;7.90;99.90;;;;;;4982546;28;20031;-81
2023/12/20 09:43:38;;;;;;;22.47;3.50;;;7.90;99.90;;;;;;4981204;28;20095;-81
2023/12/20 09:46:07;;;;;;;17.70;2.70;;;7.90;99.90;;;;;;4997306;28;20026;-82
2023/12/20 09:48:34;;;;;;;21.53;3.83;;;7.90;99.90;;;;;;4982905;28;20031;-81
2023/12/20 09:50:59;;;;;;;19.07;3.23;;;7.90;99.90;;;;;;4981424;28;20031;-82
2023/12/20 09:53:29;;;;;;;20.53;3.27;;;7.90;99.90;;;;;;4980658;28;20510;-82
2023/12/20 09:55:59;;;;;;;19.00;2.87;;;7.90;99.90;;;;;;4981535;28;20094;-81
2023/12/20 09:58:24;;;;;;;22.53;3.10;;;7.90;99.90;;;;;;4980942;28;20039;-81
2023/12/20 10:00:51;;;;;;;21.17;3.00;;;7.90;99.90;;;;;;4997413;28;20050;-81
2023/12/20 10:03:18;;;;;;;20.03;2.80;;;7.90;99.90;;;;;;4981006;28;20022;-82
2023/12/20 10:05:44;;;;;;;16.13;2.77;;;7.90;99.90;;;;;;4981420;28;20483;-82
2023/12/20 10:08:10;;;;;;;19.23;3.83;;;7.90;99.90;;;;;;4980916;28;20023;-82
2023/12/20 10:10:36;;;;;;;16.40;3.33;;;7.90;99.90;;;;;;4982884;28;20046;-83
2023/12/20 10:13:10;;;;;;;16.13;2.40;;;8.00;99.90;;;;;;4981293;28;20023;-82
2023/12/20 10:15:36;;;;;;;14.73;2.60;;;8.00;99.90;;;;;;4980282;28;20030;-83
2023/12/20 10:18:03;;;;;;;17.43;2.80;;;8.00;99.90;;;;;;4981287;28;20031;-82
2023/12/20 10:20:30;;;;;;;16.83;3.10;;;8.00;99.90;;;;;;4981060;28;20094;-81
2023/12/20 10:22:57;;;;;;;19.60;2.93;;;8.00;99.90;;;;;;4997151;28;20030;-81
2023/12/20 10:25:23;;;;;;;16.63;2.83;;;8.00;99.90;;;;;;4980688;28;20023;-81
2023/12/20 10:27:50;;;;;;;13.90;2.17;;;8.00;99.90;;;;;;4980650;28;20061;-80
2023/12/20 10:30:16;;;;;;;19.73;2.90;;;8.10;99.90;;;;;;4980442;28;20038;-82
2023/12/20 10:32:42;;;;;;;22.27;3.73;;;8.10;99.90;;;;;;4980455;28;20030;-83
2023/12/20 10:35:09;;;;;;;19.57;2.90;;;8.10;99.90;;;;;;4980648;28;20610;-82
2023/12/20 10:37:36;;;;;;;19.10;2.80;;;8.10;99.90;;;;;;4980248;28;20519;-82
2023/12/20 10:40:06;;;;;;;19.63;2.40;;;8.20;99.90;;;;;;4982416;28;20030;-83
2023/12/20 10:42:33;;;;;;;15.23;2.93;;;8.20;99.90;;;;;;4996686;28;20038;-82
2023/12/20 10:45:00;;;;;;;15.33;2.23;;;8.20;99.90;;;;;;4981884;28;20558;-83
2023/12/20 10:47:28;;;;;;;14.20;2.33;;;8.20;99.90;;;;;;4980780;28;20015;-82
2023/12/20 10:49:55;;;;;;;19.07;2.53;;;8.30;99.90;;;;;;4980204;28;20031;-82
2023/12/20 10:52:24;;;;;;;12.50;2.27;;;8.30;99.90;;;;;;4981999;28;20050;-81
2023/12/20 10:54:50;;;;;;;20.37;3.27;;;8.30;99.90;;;;;;4980624;28;20042;-82
2023/12/20 10:57:19;;;;;;;22.07;3.67;;;8.30;99.90;;;;;;4980681;28;20039;-81
2023/12/20 10:59:49;;;;;;;14.03;2.13;;;8.30;99.90;;;;;;4981443;28;20131;-80
2023/12/20 11:02:15;;;;;;;20.00;2.93;;;8.30;99.90;;;;;;4982043;28;20054;-83
2023/12/20 11:04:43;;;;;;;21.37;3.50;;;8.30;99.90;;;;;;4983869;28;20034;-81
2023/12/20 11:07:21;;;;;;;14.80;2.37;;;8.30;99.90;;;;;;4983892;28;20031;-81
2023/12/20 11:10:01;;;;;;;19.43;2.80;;;8.30;99.90;;;;;;4985521;28;20039;-81
2023/12/20 11:12:54;;;;;;;23.20;3.77;;;8.40;99.90;;;;;;4983657;28;20019;-82
2023/12/20 11:15:21;;;;;;;24.57;2.80;;;8.40;99.90;;;;;;4985197;28;20086;-82
2023/12/20 11:17:54;;;;;;;22.80;3.27;;;8.40;99.90;;;;;;4985010;28;20035;-83
2023/12/20 11:20:23;;;;;;;14.67;2.83;;;8.50;99.90;;;;;;4983315;28;20799;-83
2023/12/20 11:22:53;;;;;;;17.97;2.40;;;8.50;99.90;;;;;;4983470;28;20035;-82
2023/12/20 11:25:19;;;;;;;21.33;3.00;;;8.50;99.90;;;;;;4983324;28;20033;-82
2023/12/20 11:28:10;;;;;;;22.23;2.87;;;8.60;99.90;;;;;;4991926;28;20085;-83
2023/12/20 11:30:54;;;;;;;16.60;3.27;;;8.60;99.90;;;;;;5002723;28;20042;-82
2023/12/20 11:33:30;;;;;;;16.88;2.10;;;8.60;99.90;;;;;;4986321;28;20045;-82
2023/12/20 11:35:57;;;;;;;10.53;2.03;;;8.60;99.90;;;;;;4986540;28;20035;-82
2023/12/20 11:38:24;;;;;;;17.30;2.60;;;8.70;99.90;;;;;;5002598;28;20049;-82
2023/12/20 11:40:50;;;;;;;16.60;3.33;;;8.60;99.90;;;;;;4986826;28;20037;-82
2023/12/20 11:43:38;;;;;;;16.87;3.13;;;8.70;99.90;;;;;;5002837;28;20014;-83
2023/12/20 11:46:05;;;;;;;14.70;3.17;;;8.70;99.90;;;;;;4988131;28;20022;-83
2023/12/20 11:48:32;;;;;;;17.20;2.90;;;8.70;99.90;;;;;;5003103;28;20034;-82
2023/12/20 11:50:59;;;;;;;25.40;3.43;;;8.70;99.90;;;;;;5003913;28;20053;-82
2023/12/20 11:53:24;;;;;;;13.60;2.37;;;8.70;99.90;;;;;;5002951;28;20020;-82
2023/12/20 11:55:50;;;;;;;16.90;4.07;;;8.80;99.90;;;;;;5002244;28;20027;-82
2023/12/20 11:58:17;;;;;;;21.90;3.53;;;8.80;99.90;;;;;;5003326;28;20041;-82
2023/12/20 12:00:43;;;;;;;18.73;3.13;;;8.90;99.90;;;;;;5002792;28;20052;-82
2023/12/20 12:03:09;;;;;;;19.87;3.30;;;8.90;99.90;;;;;;5002039;28;20097;-81
2023/12/20 12:05:38;;;;;;;21.27;2.40;;;9.00;99.90;;;;;;5002672;28;20422;-81
2023/12/20 12:08:05;;;;;;;22.20;2.77;;;9.00;99.90;;;;;;5002104;28;20031;-82
2023/12/20 12:10:31;;;;;;;21.87;3.33;;;9.10;99.90;;;;;;5002548;28;20026;-82
2023/12/20 12:12:56;;;;;;;15.07;2.23;;;9.10;99.90;;;;;;5002084;28;20202;-82
2023/12/20 12:15:22;;;;;;;15.43;2.03;;;9.20;99.90;;;;;;5001760;28;20034;-83
2023/12/20 12:17:55;;;;;;;13.17;1.60;;;9.20;99.90;;;;;;5002120;28;20068;-82
2023/12/20 12:20:22;;;;;;;13.90;2.13;;;9.30;99.90;;;;;;5001916;28;20023;-82
2023/12/20 12:23:01;;;;;;;22.87;2.90;;;9.30;99.90;;;;;;5002630;28;20098;-81
2023/12/20 12:25:28;;;;;;;13.70;2.20;;;9.40;99.90;;;;;;5001960;28;20106;-81
2023/12/20 12:27:54;;;;;;;12.33;1.50;;;9.40;99.90;;;;;;4986001;28;20046;-81
2023/12/20 12:30:19;;;;;;;10.53;2.00;;;9.50;99.90;;;;;;5003235;28;20019;-82
2023/12/20 12:32:45;;;;;;;15.27;2.23;;;9.50;99.90;;;;;;5001937;28;20817;-81
2023/12/20 12:35:11;;;;;;;12.30;1.77;;;9.60;99.90;;;;;;5003169;28;20053;-82
2023/12/20 12:37:41;;;;;;;20.47;2.50;;;9.60;99.90;;;;;;4985152;28;20046;-83
2023/12/20 12:40:11;;;;;;;18.67;2.57;;;9.50;99.90;;;;;;5001650;28;20361;-82
2023/12/20 12:42:37;;;;;;;20.43;2.20;;;9.50;99.90;;;;;;5001325;28;20038;-82
2023/12/20 12:45:04;;;;;;;18.57;3.20;;;9.50;99.90;;;;;;5002244;28;20042;-83